Alpine, New Jersey
Current Conditions -  °F | °C
As of 9:51 AM on Friday 28 Nov 2014 (Local Time) from KTEB Reporting Station
Clear Clear  
Wind Chill: 25°   Ceiling: Unl
Heat Index: 35°   Visibility: 10mi
Dew Point: 19°   Wind: 17mph
Humidity: 52%   Direction: 340°NNW
Pressure: 30.18"   Gusts: 23mph
Location:  40.96°N, 73.93°W
Report Text: KTEB 281451Z 34015G20KT 10SM CLR 02/M07 A3018 RMK AO2 SLP220 T00171072 51016 $
Loading
Personal Weather Stations






























Interactive Weather Map New forecast layout! Learn more

10-Day Weather Forecast

Advertisements
Track Severe Weather on mobile